Susquehanna — WDD9976 — position and weather

sailwx.info

Track history (hours):
 
Tides and Currents Weather Stations Pressure Air Temp Water Temp Dewpoint Dewpoint Depression Visibility Wind Speed Wind Dir Waves Ship Positions

Susquehanna

Owner: Vane Line Bunkering, Inc., Baltimore, MD. More information available from US FCC via Universal Licensing System and Coast Guard Vessel Documentation Center.

Last reported at 2015-Jun-30 09:33 UTC. Time now 2015-Jun-30 09:56 UTC.
Position N 40°40' W 074°03'.

Length 28 m; draft 4.2 m.

Type: Tug. MMSI: 367318750.

Date/timePositionNaut miles runAvg speedWind from/ knotsBaromVisibWave heightAir tempDewpointWater temp
2015-Jun-30 09:33N 40°40' W 074°03'2 1.9
2015-Jun-30 08:33N 40°40' W 074°01'0 0.3
2015-Jun-30 07:33N 40°40' W 074°00'0 0.0
2015-Jun-30 06:31N 40°40' W 074°00'0 0.0
2015-Jun-30 05:32N 40°40' W 074°00'0 0.0
2015-Jun-30 04:32N 40°40' W 074°00'0 0.0
2015-Jun-30 03:33N 40°40' W 074°00'0 0.0
2015-Jun-30 02:31N 40°40' W 074°00'0 0.0
2015-Jun-30 01:31N 40°40' W 074°00'0 0.0
2015-Jun-30 00:32N 40°40' W 074°00'0 0.0
2015-Jun-29 23:33N 40°40' W 074°00'0 0.0
2015-Jun-29 22:33N 40°40' W 074°00'0 0.0
2015-Jun-29 21:31N 40°40' W 074°00'2 2.2
2015-Jun-29 20:33N 40°40' W 074°03'2 1.6
2015-Jun-29 19:33N 40°40' W 074°05'0 0.0
2015-Jun-29 18:33N 40°40' W 074°05'2 1.6
2015-Jun-29 17:34N 40°39' W 074°04'2 1.6
2015-Jun-29 16:33N 40°37' W 074°04'0 0.0
2015-Jun-29 15:33N 40°37' W 074°04'0 0.0
2015-Jun-29 14:33N 40°37' W 074°04'1 0.8
2015-Jun-29 13:33N 40°38' W 074°04'2 1.8
2015-Jun-29 12:33N 40°40' W 074°04'0 0.0
2015-Jun-29 11:33N 40°40' W 074°04'1 0.7
2015-Jun-29 10:33N 40°39' W 074°04'1 1.2
2015-Jun-29 09:33N 40°39' W 074°06'0 0.0
2015-Jun-29 08:33N 40°39' W 074°06'0 0.0
2015-Jun-29 07:33N 40°39' W 074°06'0 0.0
2015-Jun-29 06:33N 40°39' W 074°06'0 0.0
2015-Jun-29 05:33N 40°39' W 074°06'2 1.7
2015-Jun-29 04:34N 40°40' W 074°04'0 0.0
2015-Jun-29 03:32N 40°40' W 074°04'0 0.0
2015-Jun-29 02:33N 40°40' W 074°04'0 0.0
2015-Jun-29 01:31N 40°40' W 074°04'0 0.0
2015-Jun-29 00:31N 40°40' W 074°04'2 1.8
2015-Jun-28 23:33N 40°39' W 074°02'2 2.1
2015-Jun-28 22:31N 40°40' W 074°00'0 0.0
2015-Jun-28 21:32N 40°40' W 074°00'0 0.0
2015-Jun-28 19:33N 40°40' W 074°00'0 0.0
2015-Jun-28 18:31N 40°40' W 074°00'0 0.0
2015-Jun-28 17:31N 40°40' W 074°00'2 2.2
2015-Jun-28 16:34N 40°40' W 074°03'0 0.0
2015-Jun-28 15:34N 40°40' W 074°03'2 1.6
2015-Jun-28 14:34N 40°40' W 074°05'0 0.0
2015-Jun-28 13:34N 40°40' W 074°05'0 0.0
2015-Jun-28 12:34N 40°40' W 074°05'0 0.0
2015-Jun-28 11:34N 40°40' W 074°05'0 0.0
2015-Jun-28 10:34N 40°40' W 074°05'1 1.2
2015-Jun-28 09:34N 40°40' W 074°04'4 3.7
2015-Jun-28 08:34N 40°39' W 074°08'3 1.5
2015-Jun-28 06:31N 40°38' W 074°12'0 0.0
2015-Jun-28 05:04N 40°38' W 074°12'0 0.0
2015-Jun-28 04:34N 40°38' W 074°12'0 0.0
2015-Jun-28 03:33N 40°38' W 074°12'0 0.0
2015-Jun-28 02:34N 40°38' W 074°12'0 0.0
2015-Jun-28 01:13N 40°38' W 074°12'0 0.0
2015-Jun-28 00:33N 40°38' W 074°12'0 0.2
2015-Jun-27 23:24N 40°38' W 074°12'5 6.2
2015-Jun-27 22:33N 40°39' W 074°05'1 1.2
2015-Jun-27 21:34N 40°40' W 074°05'0 0.0
2015-Jun-27 20:34N 40°40' W 074°05'0 0.0
2015-Jun-27 19:34N 40°40' W 074°05'0 0.0
2015-Jun-27 18:33N 40°40' W 074°05'0 0.0
2015-Jun-27 17:34N 40°40' W 074°05'1 0.9
2015-Jun-27 16:33N 40°39' W 074°05'1 1.4
2015-Jun-27 15:34N 40°40' W 074°03'0 0.2
2015-Jun-27 14:34N 40°40' W 074°03'2 2.4
2015-Jun-27 13:34N 40°40' W 074°00'0 0.0
2015-Jun-27 12:34N 40°40' W 074°00'0 0.0
2015-Jun-27 11:34N 40°40' W 074°00'0 0.1
2015-Jun-27 10:34N 40°40' W 074°00'6 6.2
2015-Jun-27 09:34N 40°41' W 074°08'1 1.1
2015-Jun-27 08:28N 40°41' W 074°10'0 0.0
2015-Jun-27 07:33N 40°41' W 074°10'0 0.0
2015-Jun-27 06:20N 40°41' W 074°10'0 0.0
2015-Jun-27 05:29N 40°41' W 074°10'0 0.0
2015-Jun-27 04:33N 40°41' W 074°10'0 0.0
2015-Jun-27 03:33N 40°41' W 074°10'0 0.0
2015-Jun-27 02:33N 40°41' W 074°10'0 0.0
2015-Jun-27 01:33N 40°41' W 074°10'0 0.0
2015-Jun-27 00:33N 40°41' W 074°10'0 0.0
2015-Jun-26 23:33N 40°41' W 074°10'0 0.0
2015-Jun-26 22:32N 40°41' W 074°10'1 1.0
2015-Jun-26 21:34N 40°41' W 074°09'2 2.1
2015-Jun-26 20:32N 40°39' W 074°07'1 1.2
2015-Jun-26 19:31N 40°39' W 074°06'0 0.0
2015-Jun-26 18:32N 40°39' W 074°06'0 0.0
2015-Jun-26 17:29N 40°39' W 074°06'0 0.0
2015-Jun-26 16:33N 40°39' W 074°06'0 0.0
2015-Jun-26 15:31N 40°39' W 074°06'0 0.0
2015-Jun-26 14:31N 40°39' W 074°06'0 0.0
2015-Jun-26 13:32N 40°39' W 074°06'0 0.0
2015-Jun-26 12:32N 40°39' W 074°06'2 1.7
2015-Jun-26 11:33N 40°40' W 074°04'1 0.7
2015-Jun-26 10:33N 40°40' W 074°05'0 0.0
2015-Jun-26 09:31N 40°40' W 074°05'0 0.0
2015-Jun-26 08:31N 40°40' W 074°05'0 0.0
2015-Jun-26 07:32N 40°40' W 074°05'0 0.0
2015-Jun-26 06:33N 40°40' W 074°05'2 2.2
2015-Jun-26 05:33N 40°39' W 074°03'0 0.1
2015-Jun-26 04:33N 40°39' W 074°03'0 0.0
2015-Jun-26 03:33N 40°39' W 074°03'0 0.0
2015-Jun-26 02:33N 40°39' W 074°03'5 5.2
2015-Jun-26 01:34N 40°39' W 074°09'2 1.6
2015-Jun-26 00:28N 40°38' W 074°12'0 0.0
2015-Jun-25 23:31N 40°38' W 074°12'0 0.0
2015-Jun-25 22:23N 40°38' W 074°12'0 0.0
2015-Jun-25 20:33N 40°38' W 074°12'0 0.0
2015-Jun-25 19:29N 40°38' W 074°12'0 0.0
2015-Jun-25 18:31N 40°38' W 074°12'4 4.1
2015-Jun-25 17:32N 40°39' W 074°06'1 0.9
2015-Jun-25 16:33N 40°39' W 074°05'2 2.2
2015-Jun-25 15:34N 40°39' W 074°02'0 0.0
2015-Jun-25 14:33N 40°39' W 074°02'0 0.0
2015-Jun-25 13:33N 40°39' W 074°02'0 0.0
2015-Jun-25 12:33N 40°39' W 074°02'0 0.0
2015-Jun-25 11:33N 40°39' W 074°02'0 0.0
2015-Jun-25 10:33N 40°39' W 074°02'2 1.8
2015-Jun-25 09:33N 40°40' W 074°00'0 0.0
2015-Jun-25 08:33N 40°40' W 074°00'0 0.0
2015-Jun-25 07:33N 40°40' W 074°00'0 0.0
2015-Jun-25 06:33N 40°40' W 074°00'0 0.0
2015-Jun-25 05:33N 40°40' W 074°00'0 0.0
2015-Jun-25 04:33N 40°40' W 074°00'0 0.0
2015-Jun-25 03:33N 40°40' W 074°00'0 0.0
2015-Jun-25 02:33N 40°40' W 074°00'0 0.0
2015-Jun-25 01:33N 40°40' W 074°00'0 0.0
2015-Jun-25 00:33N 40°40' W 074°00'0 0.0
2015-Jun-24 23:33N 40°40' W 074°00'0 0.0
2015-Jun-24 22:33N 40°40' W 074°00'1 1.1
2015-Jun-24 21:33N 40°40' W 074°01'2 1.5
2015-Jun-24 20:33N 40°38' W 074°03'2 2.5
2015-Jun-24 19:34N 40°40' W 074°00'0 0.1
2015-Jun-24 18:33N 40°40' W 074°00'0 0.0
2015-Jun-24 17:31N 40°40' W 074°00'0 0.0
2015-Jun-24 16:31N 40°40' W 074°00'0 0.0
2015-Jun-24 15:32N 40°40' W 074°00'0 0.0
2015-Jun-24 14:33N 40°40' W 074°00'0 0.0
2015-Jun-24 13:33N 40°40' W 074°00'0 0.0
2015-Jun-24 12:31N 40°40' W 074°00'0 0.0
2015-Jun-24 11:32N 40°40' W 074°00'0 0.0
2015-Jun-24 10:32N 40°40' W 074°00'0 0.0
2015-Jun-24 09:33N 40°40' W 074°00'0 0.0
2015-Jun-24 08:33N 40°40' W 074°00'0 0.0
2015-Jun-24 07:31N 40°40' W 074°00'0 0.0
2015-Jun-24 06:33N 40°40' W 074°00'0 0.3
2015-Jun-24 05:33N 40°40' W 074°00'0 0.0
2015-Jun-24 04:31N 40°40' W 074°00'0 0.0
2015-Jun-24 03:32N 40°40' W 074°00'0 0.0
2015-Jun-24 02:32N 40°40' W 074°00'0 0.0
2015-Jun-24 01:33N 40°40' W 074°00'0 0.0
2015-Jun-24 00:33N 40°40' W 074°00'0 0.0
2015-Jun-23 23:32N 40°40' W 074°00'0 0.0
2015-Jun-23 22:32N 40°40' W 074°00'0 0.0
2015-Jun-23 21:33N 40°40' W 074°00'0 0.0
2015-Jun-23 20:33N 40°40' W 074°00'2 1.9
2015-Jun-23 19:34N 40°39' W 074°02'1 1.4
2015-Jun-23 19:05N 40°40' W 074°02'1 0.1
2015-Jun-22 19:33N 40°40' W 074°00'0 0.3
2015-Jun-22 18:32N 40°40' W 074°00'0 0.0
2015-Jun-22 17:33N 40°40' W 074°00'0 0.0
2015-Jun-22 16:33N 40°40' W 074°00'0 0.3
2015-Jun-22 15:33N 40°40' W 074°00'0 0.0
2015-Jun-22 14:34N 40°40' W 074°00'3 3.1
2015-Jun-22 13:33N 40°43' W 074°02'6 5.4
2015-Jun-22 12:31N 40°48' W 073°59'0 0.0
2015-Jun-22 11:32N 40°48' W 073°59'0 0.0
2015-Jun-22 10:32N 40°48' W 073°59'0 0.0
2015-Jun-22 09:33N 40°48' W 073°59'0 0.0
2015-Jun-22 08:31N 40°48' W 073°59'0 0.1
2015-Jun-22 07:31N 40°48' W 073°59'0 0.0
2015-Jun-22 06:29N 40°48' W 073°59'0 0.0
2015-Jun-22 05:33N 40°48' W 073°59'0 0.0
2015-Jun-22 04:33N 40°48' W 073°59'0 0.0
2015-Jun-22 03:31N 40°48' W 073°59'0 0.1
2015-Jun-22 02:32N 40°48' W 073°59'0 0.1
2015-Jun-22 01:32N 40°48' W 073°59'0 0.0
2015-Jun-22 00:33N 40°48' W 073°59'0 0.0
2015-Jun-21 23:31N 40°48' W 073°59'0 0.0
2015-Jun-21 22:31N 40°48' W 073°59'0 0.0
2015-Jun-21 21:32N 40°48' W 073°59'0 0.0
2015-Jun-21 20:32N 40°48' W 073°59'0 0.1
2015-Jun-21 19:33N 40°48' W 073°59'0 0.1
2015-Jun-21 18:31N 40°48' W 073°59'0 0.0
2015-Jun-21 17:31N 40°48' W 073°59'0 0.0
2015-Jun-21 16:29N 40°48' W 073°59'0 0.0
2015-Jun-21 15:30N 40°48' W 073°59'0 0.1
2015-Jun-21 14:30N 40°48' W 073°59'0 0.0
2015-Jun-21 13:31N 40°48' W 073°59'0 0.0
2015-Jun-21 12:32N 40°48' W 073°59'0 0.0
2015-Jun-21 11:32N 40°48' W 073°59'0 0.0
2015-Jun-21 10:33N 40°48' W 073°59'0 0.0
2015-Jun-21 09:31N 40°48' W 073°59'0 0.0
2015-Jun-21 08:31N 40°48' W 073°59'0 0.1
2015-Jun-21 07:32N 40°48' W 073°59'0 0.0
2015-Jun-21 06:33N 40°48' W 073°59'0 0.0
2015-Jun-21 05:33N 40°48' W 073°59'0 0.0
2015-Jun-21 04:31N 40°48' W 073°59'0 0.0
2015-Jun-21 03:32N 40°48' W 073°59'6 6.0
2015-Jun-21 02:34N 40°43' W 074°01'6 5.6
2015-Jun-21 01:33N 40°47' W 073°56'27 9.2
2015-Jun-20 22:33N 41°00' W 073°24'1010.1
2015-Jun-20 21:32N 41°05' W 073°12'11 9.6
2015-Jun-20 20:25N 41°10' W 072°59'7 8.4
2015-Jun-20 19:33N 41°16' W 072°55'1 0.1
2015-Jun-20 11:27N 41°17' W 072°55'  
Track history (hours):
 
Tides and Currents Weather Stations Pressure Air Temp Water Temp Dewpoint Dewpoint Depression Visibility Wind Speed Wind Dir Waves Ship Positions

Susquehanna

Owner: Vane Line Bunkering, Inc., Baltimore, MD. More information available from US FCC via Universal Licensing System and Coast Guard Vessel Documentation Center.

Last reported at 2015-Jun-30 09:33 UTC. Time now 2015-Jun-30 09:56 UTC.
Position N 40°40' W 074°03'.

Length 28 m; draft 4.2 m.

Type: Tug. MMSI: 367318750.

Date/timePositionNaut miles runAvg speedWind from/ knotsBaromVisibWave heightAir tempDewpointWater temp
2015-Jun-30 09:33N 40°40' W 074°03'2 1.9
2015-Jun-30 08:33N 40°40' W 074°01'0 0.3
2015-Jun-30 07:33N 40°40' W 074°00'0 0.0
2015-Jun-30 06:31N 40°40' W 074°00'0 0.0
2015-Jun-30 05:32N 40°40' W 074°00'0 0.0
2015-Jun-30 04:32N 40°40' W 074°00'0 0.0
2015-Jun-30 03:33N 40°40' W 074°00'0 0.0
2015-Jun-30 02:31N 40°40' W 074°00'0 0.0
2015-Jun-30 01:31N 40°40' W 074°00'0 0.0
2015-Jun-30 00:32N 40°40' W 074°00'0 0.0
2015-Jun-29 23:33N 40°40' W 074°00'0 0.0
2015-Jun-29 22:33N 40°40' W 074°00'0 0.0
2015-Jun-29 21:31N 40°40' W 074°00'2 2.2
2015-Jun-29 20:33N 40°40' W 074°03'2 1.6
2015-Jun-29 19:33N 40°40' W 074°05'0 0.0
2015-Jun-29 18:33N 40°40' W 074°05'2 1.6
2015-Jun-29 17:34N 40°39' W 074°04'2 1.6
2015-Jun-29 16:33N 40°37' W 074°04'0 0.0
2015-Jun-29 15:33N 40°37' W 074°04'0 0.0
2015-Jun-29 14:33N 40°37' W 074°04'1 0.8
2015-Jun-29 13:33N 40°38' W 074°04'2 1.8
2015-Jun-29 12:33N 40°40' W 074°04'0 0.0
2015-Jun-29 11:33N 40°40' W 074°04'1 0.7
2015-Jun-29 10:33N 40°39' W 074°04'1 1.2
2015-Jun-29 09:33N 40°39' W 074°06'0 0.0
2015-Jun-29 08:33N 40°39' W 074°06'0 0.0
2015-Jun-29 07:33N 40°39' W 074°06'0 0.0
2015-Jun-29 06:33N 40°39' W 074°06'0 0.0
2015-Jun-29 05:33N 40°39' W 074°06'2 1.7
2015-Jun-29 04:34N 40°40' W 074°04'0 0.0
2015-Jun-29 03:32N 40°40' W 074°04'0 0.0
2015-Jun-29 02:33N 40°40' W 074°04'0 0.0
2015-Jun-29 01:31N 40°40' W 074°04'0 0.0
2015-Jun-29 00:31N 40°40' W 074°04'2 1.8
2015-Jun-28 23:33N 40°39' W 074°02'2 2.1
2015-Jun-28 22:31N 40°40' W 074°00'0 0.0
2015-Jun-28 21:32N 40°40' W 074°00'0 0.0
2015-Jun-28 19:33N 40°40' W 074°00'0 0.0
2015-Jun-28 18:31N 40°40' W 074°00'0 0.0
2015-Jun-28 17:31N 40°40' W 074°00'2 2.2
2015-Jun-28 16:34N 40°40' W 074°03'0 0.0
2015-Jun-28 15:34N 40°40' W 074°03'2 1.6
2015-Jun-28 14:34N 40°40' W 074°05'0 0.0
2015-Jun-28 13:34N 40°40' W 074°05'0 0.0
2015-Jun-28 12:34N 40°40' W 074°05'0 0.0
2015-Jun-28 11:34N 40°40' W 074°05'0 0.0
2015-Jun-28 10:34N 40°40' W 074°05'1 1.2
2015-Jun-28 09:34N 40°40' W 074°04'4 3.7
2015-Jun-28 08:34N 40°39' W 074°08'3 1.5
2015-Jun-28 06:31N 40°38' W 074°12'0 0.0
2015-Jun-28 05:04N 40°38' W 074°12'0 0.0
2015-Jun-28 04:34N 40°38' W 074°12'0 0.0
2015-Jun-28 03:33N 40°38' W 074°12'0 0.0
2015-Jun-28 02:34N 40°38' W 074°12'0 0.0
2015-Jun-28 01:13N 40°38' W 074°12'0 0.0
2015-Jun-28 00:33N 40°38' W 074°12'0 0.2
2015-Jun-27 23:24N 40°38' W 074°12'5 6.2
2015-Jun-27 22:33N 40°39' W 074°05'1 1.2
2015-Jun-27 21:34N 40°40' W 074°05'0 0.0
2015-Jun-27 20:34N 40°40' W 074°05'0 0.0
2015-Jun-27 19:34N 40°40' W 074°05'0 0.0
2015-Jun-27 18:33N 40°40' W 074°05'0 0.0
2015-Jun-27 17:34N 40°40' W 074°05'1 0.9
2015-Jun-27 16:33N 40°39' W 074°05'1 1.4
2015-Jun-27 15:34N 40°40' W 074°03'0 0.2
2015-Jun-27 14:34N 40°40' W 074°03'2 2.4
2015-Jun-27 13:34N 40°40' W 074°00'0 0.0
2015-Jun-27 12:34N 40°40' W 074°00'0 0.0
2015-Jun-27 11:34N 40°40' W 074°00'0 0.1
2015-Jun-27 10:34N 40°40' W 074°00'6 6.2
2015-Jun-27 09:34N 40°41' W 074°08'1 1.1
2015-Jun-27 08:28N 40°41' W 074°10'0 0.0
2015-Jun-27 07:33N 40°41' W 074°10'0 0.0
2015-Jun-27 06:20N 40°41' W 074°10'0 0.0
2015-Jun-27 05:29N 40°41' W 074°10'0 0.0
2015-Jun-27 04:33N 40°41' W 074°10'0 0.0
2015-Jun-27 03:33N 40°41' W 074°10'0 0.0
2015-Jun-27 02:33N 40°41' W 074°10'0 0.0
2015-Jun-27 01:33N 40°41' W 074°10'0 0.0
2015-Jun-27 00:33N 40°41' W 074°10'0 0.0
2015-Jun-26 23:33N 40°41' W 074°10'0 0.0
2015-Jun-26 22:32N 40°41' W 074°10'1 1.0
2015-Jun-26 21:34N 40°41' W 074°09'2 2.1
2015-Jun-26 20:32N 40°39' W 074°07'1 1.2
2015-Jun-26 19:31N 40°39' W 074°06'0 0.0
2015-Jun-26 18:32N 40°39' W 074°06'0 0.0
2015-Jun-26 17:29N 40°39' W 074°06'0 0.0
2015-Jun-26 16:33N 40°39' W 074°06'0 0.0
2015-Jun-26 15:31N 40°39' W 074°06'0 0.0
2015-Jun-26 14:31N 40°39' W 074°06'0 0.0
2015-Jun-26 13:32N 40°39' W 074°06'0 0.0
2015-Jun-26 12:32N 40°39' W 074°06'2 1.7
2015-Jun-26 11:33N 40°40' W 074°04'1 0.7
2015-Jun-26 10:33N 40°40' W 074°05'0 0.0
2015-Jun-26 09:31N 40°40' W 074°05'0 0.0
2015-Jun-26 08:31N 40°40' W 074°05'0 0.0
2015-Jun-26 07:32N 40°40' W 074°05'0 0.0
2015-Jun-26 06:33N 40°40' W 074°05'2 2.2
2015-Jun-26 05:33N 40°39' W 074°03'0 0.1
2015-Jun-26 04:33N 40°39' W 074°03'0 0.0
2015-Jun-26 03:33N 40°39' W 074°03'0 0.0
2015-Jun-26 02:33N 40°39' W 074°03'5 5.2
2015-Jun-26 01:34N 40°39' W 074°09'2 1.6
2015-Jun-26 00:28N 40°38' W 074°12'0 0.0
2015-Jun-25 23:31N 40°38' W 074°12'0 0.0
2015-Jun-25 22:23N 40°38' W 074°12'0 0.0
2015-Jun-25 20:33N 40°38' W 074°12'0 0.0
2015-Jun-25 19:29N 40°38' W 074°12'0 0.0
2015-Jun-25 18:31N 40°38' W 074°12'4 4.1
2015-Jun-25 17:32N 40°39' W 074°06'1 0.9
2015-Jun-25 16:33N 40°39' W 074°05'2 2.2
2015-Jun-25 15:34N 40°39' W 074°02'0 0.0
2015-Jun-25 14:33N 40°39' W 074°02'0 0.0
2015-Jun-25 13:33N 40°39' W 074°02'0 0.0
2015-Jun-25 12:33N 40°39' W 074°02'0 0.0
2015-Jun-25 11:33N 40°39' W 074°02'0 0.0
2015-Jun-25 10:33N 40°39' W 074°02'2 1.8
2015-Jun-25 09:33N 40°40' W 074°00'0 0.0
2015-Jun-25 08:33N 40°40' W 074°00'0 0.0
2015-Jun-25 07:33N 40°40' W 074°00'0 0.0
2015-Jun-25 06:33N 40°40' W 074°00'0 0.0
2015-Jun-25 05:33N 40°40' W 074°00'0 0.0
2015-Jun-25 04:33N 40°40' W 074°00'0 0.0
2015-Jun-25 03:33N 40°40' W 074°00'0 0.0
2015-Jun-25 02:33N 40°40' W 074°00'0 0.0
2015-Jun-25 01:33N 40°40' W 074°00'0 0.0
2015-Jun-25 00:33N 40°40' W 074°00'0 0.0
2015-Jun-24 23:33N 40°40' W 074°00'0 0.0
2015-Jun-24 22:33N 40°40' W 074°00'1 1.1
2015-Jun-24 21:33N 40°40' W 074°01'2 1.5
2015-Jun-24 20:33N 40°38' W 074°03'2 2.5
2015-Jun-24 19:34N 40°40' W 074°00'0 0.1
2015-Jun-24 18:33N 40°40' W 074°00'0 0.0
2015-Jun-24 17:31N 40°40' W 074°00'0 0.0
2015-Jun-24 16:31N 40°40' W 074°00'0 0.0
2015-Jun-24 15:32N 40°40' W 074°00'0 0.0
2015-Jun-24 14:33N 40°40' W 074°00'0 0.0
2015-Jun-24 13:33N 40°40' W 074°00'0 0.0
2015-Jun-24 12:31N 40°40' W 074°00'0 0.0
2015-Jun-24 11:32N 40°40' W 074°00'0 0.0
2015-Jun-24 10:32N 40°40' W 074°00'0 0.0
2015-Jun-24 09:33N 40°40' W 074°00'0 0.0
2015-Jun-24 08:33N 40°40' W 074°00'0 0.0
2015-Jun-24 07:31N 40°40' W 074°00'0 0.0
2015-Jun-24 06:33N 40°40' W 074°00'0 0.3
2015-Jun-24 05:33N 40°40' W 074°00'0 0.0
2015-Jun-24 04:31N 40°40' W 074°00'0 0.0
2015-Jun-24 03:32N 40°40' W 074°00'0 0.0
2015-Jun-24 02:32N 40°40' W 074°00'0 0.0
2015-Jun-24 01:33N 40°40' W 074°00'0 0.0
2015-Jun-24 00:33N 40°40' W 074°00'0 0.0
2015-Jun-23 23:32N 40°40' W 074°00'0 0.0
2015-Jun-23 22:32N 40°40' W 074°00'0 0.0
2015-Jun-23 21:33N 40°40' W 074°00'0 0.0
2015-Jun-23 20:33N 40°40' W 074°00'2 1.9
2015-Jun-23 19:34N 40°39' W 074°02'1 1.4
2015-Jun-23 19:05N 40°40' W 074°02'1 0.1
2015-Jun-22 19:33N 40°40' W 074°00'0 0.3
2015-Jun-22 18:32N 40°40' W 074°00'0 0.0
2015-Jun-22 17:33N 40°40' W 074°00'0 0.0
2015-Jun-22 16:33N 40°40' W 074°00'0 0.3
2015-Jun-22 15:33N 40°40' W 074°00'0 0.0
2015-Jun-22 14:34N 40°40' W 074°00'3 3.1
2015-Jun-22 13:33N 40°43' W 074°02'6 5.4
2015-Jun-22 12:31N 40°48' W 073°59'0 0.0
2015-Jun-22 11:32N 40°48' W 073°59'0 0.0
2015-Jun-22 10:32N 40°48' W 073°59'0 0.0
2015-Jun-22 09:33N 40°48' W 073°59'0 0.0
2015-Jun-22 08:31N 40°48' W 073°59'0 0.1
2015-Jun-22 07:31N 40°48' W 073°59'0 0.0
2015-Jun-22 06:29N 40°48' W 073°59'0 0.0
2015-Jun-22 05:33N 40°48' W 073°59'0 0.0
2015-Jun-22 04:33N 40°48' W 073°59'0 0.0
2015-Jun-22 03:31N 40°48' W 073°59'0 0.1
2015-Jun-22 02:32N 40°48' W 073°59'0 0.1
2015-Jun-22 01:32N 40°48' W 073°59'0 0.0
2015-Jun-22 00:33N 40°48' W 073°59'0 0.0
2015-Jun-21 23:31N 40°48' W 073°59'0 0.0
2015-Jun-21 22:31N 40°48' W 073°59'0 0.0
2015-Jun-21 21:32N 40°48' W 073°59'0 0.0
2015-Jun-21 20:32N 40°48' W 073°59'0 0.1
2015-Jun-21 19:33N 40°48' W 073°59'0 0.1
2015-Jun-21 18:31N 40°48' W 073°59'0 0.0
2015-Jun-21 17:31N 40°48' W 073°59'0 0.0
2015-Jun-21 16:29N 40°48' W 073°59'0 0.0
2015-Jun-21 15:30N 40°48' W 073°59'0 0.1
2015-Jun-21 14:30N 40°48' W 073°59'0 0.0
2015-Jun-21 13:31N 40°48' W 073°59'0 0.0
2015-Jun-21 12:32N 40°48' W 073°59'0 0.0
2015-Jun-21 11:32N 40°48' W 073°59'0 0.0
2015-Jun-21 10:33N 40°48' W 073°59'0 0.0
2015-Jun-21 09:31N 40°48' W 073°59'0 0.0
2015-Jun-21 08:31N 40°48' W 073°59'0 0.1
2015-Jun-21 07:32N 40°48' W 073°59'0 0.0
2015-Jun-21 06:33N 40°48' W 073°59'0 0.0
2015-Jun-21 05:33N 40°48' W 073°59'0 0.0
2015-Jun-21 04:31N 40°48' W 073°59'0 0.0
2015-Jun-21 03:32N 40°48' W 073°59'6 6.0
2015-Jun-21 02:34N 40°43' W 074°01'6 5.6
2015-Jun-21 01:33N 40°47' W 073°56'27 9.2
2015-Jun-20 22:33N 41°00' W 073°24'1010.1
2015-Jun-20 21:32N 41°05' W 073°12'11 9.6
2015-Jun-20 20:25N 41°10' W 072°59'7 8.4
2015-Jun-20 19:33N 41°16' W 072°55'1 0.1
2015-Jun-20 11:27N 41°17' W 072°55'  

Dump ship's entire track history